createdAt,value
2023-05-24T16:56:18.044Z,7.63
2023-05-24T16:58:44.726Z,6.72
2023-05-24T17:01:11.687Z,6.05
2023-05-24T17:03:38.598Z,6.47
2023-05-24T17:06:05.496Z,6.40
2023-05-24T17:08:35.334Z,10.52
2023-05-24T17:11:06.472Z,7.88
2023-05-24T17:13:33.483Z,7.75
2023-05-24T17:16:00.594Z,9.80
2023-05-24T17:18:30.309Z,10.15
2023-05-24T17:21:06.996Z,9.35
2023-05-24T17:23:36.717Z,8.00
2023-05-24T17:26:04.413Z,8.13
2023-05-24T17:28:31.338Z,7.05
2023-05-24T17:30:59.729Z,7.15
2023-05-24T17:33:28.834Z,7.60
2023-05-24T17:35:56.745Z,7.60
2023-05-24T17:38:26.828Z,7.68
2023-05-24T17:40:57.092Z,7.68
2023-05-24T17:43:25.134Z,8.10
2023-05-24T17:45:53.858Z,9.93
2023-05-24T17:48:20.502Z,7.85
2023-05-24T17:50:47.149Z,7.82
2023-05-24T17:53:30.433Z,7.50
2023-05-24T17:55:58.345Z,7.70
2023-05-24T17:58:25.782Z,9.45
2023-05-24T18:00:52.979Z,10.35
2023-05-24T18:03:22.038Z,10.65
2023-05-24T18:05:48.704Z,11.23
2023-05-24T18:08:15.549Z,11.13
2023-05-24T18:10:42.419Z,13.23
2023-05-24T18:13:09.560Z,11.88
2023-05-24T18:15:36.746Z,13.60
2023-05-24T18:18:03.683Z,14.15
2023-05-24T18:20:31.244Z,12.35
2023-05-24T18:22:57.996Z,10.45
2023-05-24T18:25:24.722Z,10.80
2023-05-24T18:27:51.772Z,11.50
2023-05-24T18:30:18.606Z,11.40
2023-05-24T18:33:02.731Z,11.43
2023-05-24T18:35:34.879Z,11.35
2023-05-24T18:38:01.713Z,9.48
2023-05-24T18:40:28.471Z,8.98
2023-05-24T18:43:05.529Z,8.57
2023-05-24T18:45:32.182Z,8.75
2023-05-24T18:47:59.017Z,9.05
2023-05-24T18:50:26.565Z,8.68
2023-05-24T18:52:54.304Z,8.25
2023-05-24T18:55:20.927Z,8.45
2023-05-24T18:57:47.919Z,7.90
2023-05-24T19:00:15.581Z,9.00
2023-05-24T19:02:42.440Z,8.30
2023-05-24T19:05:09.390Z,8.02
2023-05-24T19:07:36.935Z,9.25
2023-05-24T19:10:04.175Z,8.55
2023-05-24T19:12:34.898Z,8.90
2023-05-24T19:15:02.955Z,9.30
2023-05-24T19:17:29.694Z,8.98
2023-05-24T19:19:56.449Z,9.40
2023-05-24T19:22:23.102Z,8.63
2023-05-24T19:24:49.707Z,9.07
2023-05-24T19:27:17.191Z,9.38
2023-05-24T19:29:43.823Z,9.38
2023-05-24T19:32:11.591Z,10.50
2023-05-24T19:34:42.504Z,13.77
2023-05-24T19:37:09.693Z,10.35
2023-05-24T19:39:37.350Z,10.90
2023-05-24T19:42:05.028Z,9.85
2023-05-24T19:44:31.636Z,10.40
2023-05-24T19:46:58.265Z,9.95
2023-05-24T19:49:24.904Z,9.95
2023-05-24T19:51:52.436Z,10.98
2023-05-24T19:54:19.110Z,11.68
2023-05-24T19:56:50.883Z,11.75
2023-05-24T19:59:20.222Z,11.20
2023-05-24T20:01:49.457Z,11.35
2023-05-24T20:04:17.076Z,9.85
2023-05-24T20:06:43.837Z,10.43
2023-05-24T20:09:10.665Z,11.30
2023-05-24T20:11:38.014Z,10.75
2023-05-24T20:14:04.657Z,10.30
2023-05-24T20:16:31.569Z,10.80
2023-05-24T20:18:58.378Z,10.27
2023-05-24T20:21:25.104Z,10.70
2023-05-24T20:23:57.689Z,11.30
2023-05-24T20:26:26.120Z,13.63
2023-05-24T20:28:52.951Z,18.45
2023-05-24T20:31:19.899Z,14.65
2023-05-24T20:33:47.075Z,15.13
2023-05-24T20:36:15.215Z,12.95
2023-05-24T20:38:42.097Z,11.35
2023-05-24T20:41:08.884Z,10.82
2023-05-24T20:43:35.592Z,11.52
2023-05-24T20:46:02.324Z,11.18
2023-05-24T20:48:30.829Z,11.38
2023-05-24T20:50:57.666Z,10.93
2023-05-24T20:53:26.282Z,10.95
2023-05-24T20:55:54.857Z,10.80
2023-05-24T20:58:21.729Z,11.40
2023-05-24T21:00:48.706Z,10.98
2023-05-24T21:03:16.453Z,10.82
2023-05-24T21:05:43.407Z,10.63
2023-05-24T21:08:10.509Z,10.98
2023-05-24T21:10:39.164Z,10.95
2023-05-24T21:13:05.948Z,10.60
2023-05-24T21:15:32.630Z,10.82
2023-05-24T21:18:00.122Z,11.40
2023-05-24T21:20:26.991Z,11.82
2023-05-24T21:22:53.712Z,15.45
2023-05-24T21:25:20.595Z,9.52
2023-05-24T21:27:47.839Z,6.80
2023-05-24T21:30:14.705Z,7.65
2023-05-24T21:32:41.374Z,6.82
2023-05-24T21:35:08.391Z,7.28
2023-05-24T21:37:35.030Z,6.70
2023-05-24T21:40:02.482Z,6.80
2023-05-24T21:42:29.154Z,6.80
2023-05-24T21:44:55.806Z,6.20
2023-05-24T21:47:22.528Z,6.65
2023-05-24T21:49:50.957Z,6.68
2023-05-24T21:52:19.623Z,7.20
2023-05-24T21:54:47.204Z,7.70
2023-05-24T21:57:13.856Z,7.88
2023-05-24T21:59:40.533Z,7.50
2023-05-24T22:02:07.221Z,7.53
2023-05-24T22:04:33.947Z,7.47
2023-05-24T22:07:00.724Z,7.72
2023-05-24T22:09:28.248Z,7.68
2023-05-24T22:11:54.848Z,7.35
2023-05-24T22:14:21.459Z,8.02
2023-05-24T22:16:49.069Z,7.97
2023-05-24T22:19:38.909Z,8.02
2023-05-24T22:22:10.510Z,8.32
2023-05-24T22:24:37.384Z,7.88
2023-05-24T22:27:04.752Z,8.25
2023-05-24T22:29:32.244Z,8.02
2023-05-24T22:31:58.973Z,8.05
2023-05-24T22:34:27.657Z,8.32
2023-05-24T22:36:56.863Z,8.75
2023-05-24T22:39:24.138Z,8.15
2023-05-24T22:41:52.112Z,7.82
2023-05-24T22:44:18.878Z,7.68
2023-05-24T22:46:50.122Z,6.97
2023-05-24T22:49:20.330Z,8.05
2023-05-24T22:51:53.492Z,7.78
2023-05-24T22:54:20.416Z,7.47
2023-05-24T22:56:47.980Z,8.02
2023-05-24T22:59:14.724Z,7.45
2023-05-24T23:01:41.543Z,7.50
2023-05-24T23:04:20.761Z,8.52
2023-05-24T23:06:49.050Z,8.35
2023-05-24T23:09:18.403Z,8.10
2023-05-24T23:11:46.210Z,7.63
2023-05-24T23:14:14.398Z,8.38
2023-05-24T23:16:46.145Z,8.35
2023-05-24T23:19:18.718Z,7.93
2023-05-24T23:21:47.105Z,7.90
2023-05-24T23:24:16.036Z,8.57
2023-05-24T23:26:43.609Z,8.48
2023-05-24T23:29:11.370Z,7.88
2023-05-24T23:31:38.269Z,7.45
2023-05-24T23:34:05.725Z,8.90
2023-05-24T23:36:33.304Z,8.70
2023-05-24T23:39:00.192Z,8.05
2023-05-24T23:41:27.432Z,8.32
2023-05-24T23:43:54.217Z,8.85
2023-05-24T23:46:20.949Z,9.05
2023-05-24T23:48:47.734Z,9.00
2023-05-24T23:51:15.460Z,8.88
2023-05-24T23:53:43.024Z,8.93
2023-05-24T23:56:09.719Z,9.10
2023-05-24T23:58:37.847Z,8.43
